createdAt,value
2016-04-23T00:00:58.547Z,1001.03
2016-04-23T00:01:58.582Z,1001
2016-04-23T00:02:58.599Z,1000.97
2016-04-23T00:03:58.633Z,1000.99
2016-04-23T00:04:58.636Z,1000.99
2016-04-23T00:05:58.655Z,1000.98
2016-04-23T00:06:58.688Z,1000.98
2016-04-23T00:07:58.707Z,1001.01
2016-04-23T00:08:58.725Z,1000.97
2016-04-23T00:09:58.744Z,1001
2016-04-23T00:10:58.762Z,1000.99
2016-04-23T00:11:58.796Z,1001.01
2016-04-23T00:12:58.814Z,1001
2016-04-23T00:13:58.832Z,1000.98
2016-04-23T00:14:58.851Z,1000.99
2016-04-23T00:15:58.869Z,1000.97
2016-04-23T00:16:58.903Z,1000.99
2016-04-23T00:17:58.921Z,1000.97
2016-04-23T00:18:58.940Z,1000.95
2016-04-23T00:20:05.755Z,1000.92
2016-04-23T00:20:58.976Z,1000.93
2016-04-23T00:21:59.011Z,1000.93
2016-04-23T00:22:59.028Z,1000.92
2016-04-23T00:23:59.047Z,1000.89
2016-04-23T00:24:59.065Z,1000.88
2016-04-23T00:25:59.099Z,1000.92
2016-04-23T00:26:59.117Z,1000.84
2016-04-23T00:27:59.136Z,1000.88
2016-04-23T00:28:59.154Z,1000.86
2016-04-23T00:29:59.172Z,1000.85
2016-04-23T00:30:59.206Z,1000.87
2016-04-23T00:31:59.225Z,1000.81
2016-04-23T00:32:59.243Z,1000.83
2016-04-23T00:33:59.261Z,1000.83
2016-04-23T00:34:59.296Z,1000.74
2016-04-23T00:35:59.313Z,1000.7
2016-04-23T00:36:59.332Z,1000.72
2016-04-23T00:37:59.350Z,1000.7
2016-04-23T00:38:59.368Z,1000.72
2016-04-23T00:39:59.387Z,1000.72
2016-04-23T00:40:59.421Z,1000.72
2016-04-23T00:41:59.439Z,1000.71
2016-04-23T00:42:59.457Z,1000.7
2016-04-23T00:43:59.476Z,1000.65
2016-04-23T00:44:59.510Z,1000.66
2016-04-23T00:45:59.528Z,1000.65
2016-04-23T00:46:59.546Z,1000.67
2016-04-23T00:47:59.565Z,1000.66
2016-04-23T00:48:59.583Z,1000.61
2016-04-23T00:49:59.601Z,1000.58
2016-04-23T00:50:59.619Z,1000.6
2016-04-23T00:51:59.654Z,1000.59
2016-04-23T00:52:59.672Z,1000.56
2016-04-23T00:53:59.690Z,1000.59
2016-04-23T00:54:59.708Z,1000.54
2016-04-23T00:55:59.742Z,1000.54
2016-04-23T00:56:59.761Z,1000.58
2016-04-23T00:57:59.778Z,1000.6
2016-04-23T00:58:59.797Z,1000.59
2016-04-23T00:59:59.816Z,1000.6
2016-04-23T01:00:59.834Z,1000.54
2016-04-23T01:01:59.868Z,1000.53
2016-04-23T01:02:59.885Z,1000.53
2016-04-23T01:03:59.904Z,1000.53
2016-04-23T01:04:59.923Z,1000.55
2016-04-23T01:05:59.941Z,1000.51
2016-04-23T01:06:59.974Z,1000.5
2016-04-23T01:07:59.994Z,1000.46
2016-04-23T01:09:00.012Z,1000.51
2016-04-23T01:10:00.030Z,1000.51
2016-04-23T01:11:00.048Z,1000.48
2016-04-23T01:12:00.067Z,1000.54
2016-04-23T01:13:00.101Z,1000.51
2016-04-23T01:14:00.118Z,1000.53
2016-04-23T01:15:00.137Z,1000.51
2016-04-23T01:16:00.155Z,1000.54
2016-04-23T01:17:00.174Z,1000.53
2016-04-23T01:18:00.192Z,1000.49
2016-04-23T01:19:00.226Z,1000.47
2016-04-23T01:20:00.245Z,1000.46
2016-04-23T01:21:00.263Z,1000.41
2016-04-23T01:22:00.281Z,1000.42
2016-04-23T01:23:00.299Z,1000.42
2016-04-23T01:24:00.334Z,1000.38
2016-04-23T01:25:00.351Z,1000.41
2016-04-23T01:26:00.370Z,1000.38
2016-04-23T01:27:00.388Z,1000.38
2016-04-23T01:28:00.406Z,1000.38
2016-04-23T01:29:00.425Z,1000.37
2016-04-23T01:30:00.474Z,1000.35
2016-04-23T01:31:00.477Z,1000.39
2016-04-23T01:32:00.495Z,1000.37
2016-04-23T01:33:00.514Z,1000.34
2016-04-23T01:34:00.532Z,1000.37
2016-04-23T01:35:00.566Z,1000.34
2016-04-23T01:36:00.585Z,1000.39
2016-04-23T01:37:00.602Z,1000.37
2016-04-23T01:38:00.621Z,1000.33
2016-04-23T01:39:00.639Z,1000.33
2016-04-23T01:40:00.657Z,1000.32
2016-04-23T01:41:00.691Z,1000.37
2016-04-23T01:42:00.710Z,1000.36
2016-04-23T01:43:00.728Z,1000.33
2016-04-23T01:44:00.746Z,1000.3
2016-04-23T01:45:00.765Z,1000.32
2016-04-23T01:46:00.783Z,1000.3
2016-04-23T01:47:00.817Z,1000.32
2016-04-23T01:48:00.835Z,1000.34
2016-04-23T01:49:00.854Z,1000.3
2016-04-23T01:50:00.872Z,1000.29
2016-04-23T01:51:00.890Z,1000.33
2016-04-23T01:52:00.908Z,1000.31
2016-04-23T01:53:00.927Z,1000.32
2016-04-23T01:54:00.961Z,1000.32
2016-04-23T01:55:00.978Z,1000.35
2016-04-23T01:56:00.998Z,1000.3
2016-04-23T01:57:01.016Z,1000.34
2016-04-23T01:58:01.034Z,1000.32
2016-04-23T01:59:01.052Z,1000.32
2016-04-23T02:00:01.087Z,1000.32
2016-04-23T02:01:01.105Z,1000.27
2016-04-23T02:02:01.122Z,1000.28
2016-04-23T02:03:01.141Z,1000.27
2016-04-23T02:04:01.159Z,1000.3
2016-04-23T02:05:01.178Z,1000.26
2016-04-23T02:06:01.211Z,1000.3
2016-04-23T02:07:01.230Z,1000.26
2016-04-23T02:08:01.249Z,1000.26
2016-04-23T02:09:01.267Z,1000.28
2016-04-23T02:10:01.285Z,1000.29
2016-04-23T02:11:01.303Z,1000.26
2016-04-23T02:12:01.338Z,1000.3
2016-04-23T02:13:01.355Z,1000.25
2016-04-23T02:14:01.374Z,1000.25
2016-04-23T02:15:01.392Z,1000.27
2016-04-23T02:16:01.410Z,1000.18
2016-04-23T02:17:01.429Z,1000.23
2016-04-23T02:18:01.447Z,1000.25
2016-04-23T02:19:01.481Z,1000.23
2016-04-23T02:20:01.499Z,1000.18
2016-04-23T02:21:01.518Z,1000.22
2016-04-23T02:22:01.536Z,1000.22
2016-04-23T02:23:01.548Z,1000.16
2016-04-23T02:24:01.583Z,1000.15
2016-04-23T02:25:01.600Z,1000.14
2016-04-23T02:26:01.619Z,1000.14
2016-04-23T02:27:01.637Z,1000.13
2016-04-23T02:28:01.656Z,1000.14
2016-04-23T02:29:01.674Z,1000.09
2016-04-23T02:30:01.692Z,1000.05
2016-04-23T02:31:01.727Z,1000.07
2016-04-23T02:32:01.744Z,1000.07
2016-04-23T02:33:01.763Z,1000.05
2016-04-23T02:34:01.781Z,1000.05
2016-04-23T02:35:01.799Z,1000.03
2016-04-23T02:36:01.818Z,1000.04
2016-04-23T02:37:01.852Z,1000.05
2016-04-23T02:38:01.870Z,1000.05
2016-04-23T02:39:01.888Z,1000
2016-04-23T02:40:01.907Z,1000.01
2016-04-23T02:41:01.925Z,1000.04
2016-04-23T02:42:01.943Z,1000.03
2016-04-23T02:43:01.962Z,999.99
2016-04-23T02:44:01.980Z,1000
2016-04-23T02:45:02.014Z,999.97
2016-04-23T02:46:02.032Z,999.95
2016-04-23T02:47:02.051Z,999.94
2016-04-23T02:48:02.069Z,999.93
2016-04-23T02:49:02.087Z,999.93
2016-04-23T02:50:02.105Z,999.94
2016-04-23T02:51:02.124Z,999.92
2016-04-23T02:52:02.158Z,999.9
2016-04-23T02:53:02.175Z,999.87
2016-04-23T02:54:02.195Z,999.89
2016-04-23T02:55:02.213Z,999.86
2016-04-23T02:56:02.247Z,999.87
2016-04-23T02:57:02.280Z,999.84
2016-04-23T02:58:02.268Z,999.89
2016-04-23T02:59:02.302Z,999.92
2016-04-23T03:00:02.319Z,999.88
2016-04-23T03:01:02.338Z,999.87
2016-04-23T03:02:02.357Z,999.87
2016-04-23T03:03:02.375Z,999.85
2016-04-23T03:04:02.393Z,999.87
2016-04-23T03:05:02.411Z,999.82
2016-04-23T03:06:02.477Z,999.83
2016-04-23T03:07:02.461Z,999.85
2016-04-23T03:08:02.479Z,999.87
2016-04-23T03:09:02.498Z,999.82
2016-04-23T03:10:02.532Z,999.85
2016-04-23T03:11:02.535Z,999.82
2016-04-23T03:12:02.568Z,999.83
2016-04-23T03:13:02.586Z,999.83
2016-04-23T03:14:02.590Z,999.81
2016-04-23T03:15:02.623Z,999.81
2016-04-23T03:16:02.641Z,999.8
2016-04-23T03:17:02.660Z,999.75
2016-04-23T03:18:02.678Z,999.78
2016-04-23T03:19:02.696Z,999.79
2016-04-23T03:20:02.715Z,999.79
2016-04-23T03:21:02.734Z,999.81
2016-04-23T03:22:02.751Z,999.77
2016-04-23T03:23:02.786Z,999.76
2016-04-23T03:24:02.803Z,999.75
2016-04-23T03:25:02.822Z,999.77
2016-04-23T03:26:02.839Z,999.74
2016-04-23T03:27:02.858Z,999.73
2016-04-23T03:28:02.878Z,999.7
2016-04-23T03:29:02.895Z,999.71
2016-04-23T03:30:02.914Z,999.7
2016-04-23T03:31:02.947Z,999.7
2016-04-23T03:32:02.966Z,999.67
2016-04-23T03:33:02.984Z,999.72
2016-04-23T03:34:03.002Z,999.71
2016-04-23T03:35:03.021Z,999.7
2016-04-23T03:36:03.039Z,999.71
2016-04-23T03:37:03.058Z,999.7
2016-04-23T03:38:03.076Z,999.71
2016-04-23T03:39:03.110Z,999.74
2016-04-23T03:40:03.128Z,999.68
2016-04-23T03:41:03.146Z,999.66
2016-04-23T03:42:03.164Z,999.67
2016-04-23T03:43:03.182Z,999.7
2016-04-23T03:44:03.202Z,999.68
2016-04-23T03:45:03.235Z,999.7
2016-04-23T03:46:03.254Z,999.68
2016-04-23T03:47:03.271Z,999.66
2016-04-23T03:48:03.274Z,999.67
2016-04-23T03:49:03.309Z,999.67
2016-04-23T03:50:03.326Z,999.66
2016-04-23T03:51:03.345Z,999.64
2016-04-23T03:52:03.364Z,999.68
2016-04-23T03:53:03.382Z,999.66
2016-04-23T03:54:03.400Z,999.66
2016-04-23T03:55:03.418Z,999.72
2016-04-23T03:56:03.440Z,999.69
2016-04-23T03:57:03.459Z,999.67
2016-04-23T03:58:03.477Z,999.62
2016-04-23T03:59:03.510Z,999.62
2016-04-23T04:00:03.530Z,999.64
2016-04-23T04:01:03.547Z,999.66
2016-04-23T04:02:03.582Z,999.63
2016-04-23T04:03:03.585Z,999.61
2016-04-23T04:04:03.603Z,999.6
2016-04-23T04:05:03.620Z,999.62
2016-04-23T04:06:03.639Z,999.58
2016-04-23T04:07:03.657Z,999.58
2016-04-23T04:08:03.676Z,999.62
2016-04-23T04:09:03.695Z,999.63
2016-04-23T04:10:03.728Z,999.65
2016-04-23T04:11:03.746Z,999.64
2016-04-23T04:12:03.765Z,999.63
2016-04-23T04:13:03.783Z,999.63
2016-04-23T04:14:03.801Z,999.63
2016-04-23T04:15:03.820Z,999.59
2016-04-23T04:16:03.838Z,999.61
2016-04-23T04:17:03.872Z,999.62
2016-04-23T04:18:03.875Z,999.62
2016-04-23T04:19:03.908Z,999.64
2016-04-23T04:20:03.927Z,999.63
2016-04-23T04:21:03.944Z,999.62
2016-04-23T04:22:03.963Z,999.62
2016-04-23T04:23:03.982Z,999.59
2016-04-23T04:24:04.000Z,999.6
2016-04-23T04:25:04.019Z,999.62
2016-04-23T04:26:04.037Z,999.59
2016-04-23T04:27:04.055Z,999.6
2016-04-23T04:28:04.073Z,999.57
2016-04-23T04:29:04.091Z,999.51
2016-04-23T04:30:04.110Z,999.56
2016-04-23T04:31:04.144Z,999.56
2016-04-23T04:32:04.163Z,999.56
2016-04-23T04:33:04.181Z,999.55
2016-04-23T04:34:04.199Z,999.51
2016-04-23T04:35:04.217Z,999.52
2016-04-23T04:36:04.235Z,999.54
2016-04-23T04:37:04.253Z,999.48
2016-04-23T04:38:04.272Z,999.56
2016-04-23T04:39:04.290Z,999.54
2016-04-23T04:40:04.309Z,999.57
2016-04-23T04:41:04.343Z,999.51
2016-04-23T04:42:04.361Z,999.54
2016-04-23T04:43:04.379Z,999.55
2016-04-23T04:44:04.397Z,999.52
2016-04-23T04:45:04.416Z,999.54
2016-04-23T04:46:04.434Z,999.53
2016-04-23T04:47:04.453Z,999.55
2016-04-23T04:48:04.472Z,999.51
2016-04-23T04:49:04.489Z,999.51
2016-04-23T04:50:04.508Z,999.55
2016-04-23T04:51:04.525Z,999.57
2016-04-23T04:52:04.560Z,999.54
2016-04-23T04:53:04.577Z,999.54
2016-04-23T04:54:04.612Z,999.53
2016-04-23T04:55:04.615Z,999.54
2016-04-23T04:56:04.633Z,999.55
2016-04-23T04:57:04.652Z,999.52
2016-04-23T04:58:04.669Z,999.51
2016-04-23T04:59:04.688Z,999.54
2016-04-23T05:00:04.706Z,999.51
2016-04-23T05:01:04.740Z,999.5
2016-04-23T05:02:04.759Z,999.54
2016-04-23T05:03:04.762Z,999.52
2016-04-23T05:04:04.796Z,999.52
2016-04-23T05:05:04.813Z,999.5
2016-04-23T05:06:04.832Z,999.46
2016-04-23T05:07:04.850Z,999.48
2016-04-23T05:08:04.869Z,999.48
2016-04-23T05:09:04.886Z,999.45
2016-04-23T05:10:04.905Z,999.46
2016-04-23T05:11:04.923Z,999.48
2016-04-23T05:12:04.942Z,999.47
2016-04-23T05:13:04.959Z,999.52
2016-04-23T05:14:04.994Z,999.53
2016-04-23T05:15:05.012Z,999.5
2016-04-23T05:16:05.031Z,999.54
2016-04-23T05:17:05.049Z,999.57
2016-04-23T05:18:05.067Z,999.56
2016-04-23T05:19:05.101Z,999.6
2016-04-23T05:20:05.104Z,999.59
2016-04-23T05:21:05.122Z,999.54
2016-04-23T05:22:05.141Z,999.61
2016-04-23T05:23:05.158Z,999.59
2016-04-23T05:24:05.177Z,999.61
2016-04-23T05:25:05.210Z,999.62
2016-04-23T05:26:05.229Z,999.59
2016-04-23T05:27:05.247Z,999.59
2016-04-23T05:28:05.266Z,999.63
2016-04-23T05:29:05.285Z,999.63
2016-04-23T05:30:05.302Z,999.6
2016-04-23T05:31:05.321Z,999.62
2016-04-23T05:32:05.339Z,999.57
2016-04-23T05:33:05.357Z,999.57
2016-04-23T05:34:05.376Z,999.61
2016-04-23T05:35:05.410Z,999.64
2016-04-23T05:36:05.412Z,999.63
2016-04-23T05:37:05.446Z,999.61
2016-04-23T05:38:05.465Z,999.68
2016-04-23T05:39:05.483Z,999.66
2016-04-23T05:40:05.501Z,999.65
2016-04-23T05:41:05.535Z,999.68
2016-04-23T05:42:05.538Z,999.73
2016-04-23T05:43:05.556Z,999.75
2016-04-23T05:44:05.575Z,999.71
2016-04-23T05:45:05.593Z,999.76
2016-04-23T05:46:05.611Z,999.79
2016-04-23T05:47:05.645Z,999.71
2016-04-23T05:48:05.663Z,999.8
2016-04-23T05:49:05.682Z,999.79
2016-04-23T05:50:05.700Z,999.79
2016-04-23T05:51:05.719Z,999.77
2016-04-23T05:52:05.737Z,999.79
2016-04-23T05:53:05.755Z,999.8
2016-04-23T05:54:05.774Z,999.81
2016-04-23T05:55:05.791Z,999.77
2016-04-23T05:56:05.810Z,999.8
2016-04-23T05:57:05.828Z,999.8
2016-04-23T05:58:05.846Z,999.81
2016-04-23T05:59:05.880Z,999.79
2016-04-23T06:00:05.899Z,999.83
2016-04-23T06:01:05.918Z,999.78
2016-04-23T06:02:05.935Z,999.77
2016-04-23T06:03:05.954Z,999.76
2016-04-23T06:04:05.971Z,999.78
2016-04-23T06:05:05.991Z,999.77
2016-04-23T06:06:06.009Z,999.77
2016-04-23T06:07:06.027Z,999.74
2016-04-23T06:08:06.046Z,999.76
2016-04-23T06:09:06.079Z,999.71
2016-04-23T06:10:06.098Z,999.68
2016-04-23T06:11:06.115Z,999.71
2016-04-23T06:12:06.134Z,999.74
2016-04-23T06:13:06.153Z,999.74
2016-04-23T06:14:06.170Z,999.69
2016-04-23T06:15:06.189Z,999.69
2016-04-23T06:16:06.208Z,999.72
2016-04-23T06:17:06.226Z,999.67
2016-04-23T06:18:06.244Z,999.66
2016-04-23T06:19:06.278Z,999.68
2016-04-23T06:20:06.280Z,999.66
2016-04-23T06:21:06.300Z,999.71
2016-04-23T06:22:06.334Z,999.68
2016-04-23T06:23:06.352Z,999.71
2016-04-23T06:24:06.370Z,999.68
2016-04-23T06:25:06.388Z,999.7
2016-04-23T06:26:06.406Z,999.69
2016-04-23T06:27:06.424Z,999.68
2016-04-23T06:28:06.443Z,999.73
2016-04-23T06:29:06.461Z,999.7
2016-04-23T06:30:06.480Z,999.71
2016-04-23T06:31:06.498Z,999.7
2016-04-23T06:32:06.516Z,999.68
2016-04-23T06:33:06.550Z,999.69
2016-04-23T06:34:06.568Z,999.7
2016-04-23T06:35:06.587Z,999.68
2016-04-23T06:36:06.604Z,999.72
2016-04-23T06:37:06.624Z,999.67
2016-04-23T06:38:06.643Z,999.71
2016-04-23T06:39:06.660Z,999.7
2016-04-23T06:40:06.679Z,999.78
2016-04-23T06:41:06.696Z,999.77
2016-04-23T06:42:06.731Z,999.71
2016-04-23T06:43:06.748Z,999.75
2016-04-23T06:44:06.767Z,999.69
2016-04-23T06:45:06.786Z,999.71
2016-04-23T06:46:06.804Z,999.71
2016-04-23T06:47:06.822Z,999.69
2016-04-23T06:48:06.840Z,999.71
2016-04-23T06:49:06.859Z,999.68
2016-04-23T06:50:06.877Z,999.63
2016-04-23T06:51:06.895Z,999.64
2016-04-23T06:52:06.913Z,999.6
2016-04-23T06:53:06.948Z,999.61
2016-04-23T06:54:06.967Z,999.57
2016-04-23T06:55:06.984Z,999.56
2016-04-23T06:56:07.003Z,999.58
2016-04-23T06:57:07.021Z,999.57
2016-04-23T06:58:07.039Z,999.62
2016-04-23T06:59:07.058Z,999.57
2016-04-23T07:00:07.076Z,999.6
2016-04-23T07:01:07.110Z,999.61
2016-04-23T07:02:07.128Z,999.62
2016-04-23T07:03:07.147Z,999.58
2016-04-23T07:04:07.165Z,999.58
2016-04-23T07:05:07.183Z,999.61
2016-04-23T07:06:07.201Z,999.55
2016-04-23T07:07:07.220Z,999.57
2016-04-23T07:08:07.237Z,999.56
2016-04-23T07:09:07.257Z,999.55
2016-04-23T07:10:07.275Z,999.52
2016-04-23T07:11:07.309Z,999.48
2016-04-23T07:12:07.327Z,999.5
2016-04-23T07:13:07.345Z,999.51
2016-04-23T07:14:07.364Z,999.52
2016-04-23T07:15:07.382Z,999.5
2016-04-23T07:16:07.400Z,999.53
2016-04-23T07:17:07.418Z,999.51
2016-04-23T07:18:07.453Z,999.49
2016-04-23T07:19:07.471Z,999.52
2016-04-23T07:20:07.489Z,999.46
2016-04-23T07:21:07.508Z,999.46
2016-04-23T07:22:07.525Z,999.48
2016-04-23T07:23:07.559Z,999.46
2016-04-23T07:24:07.562Z,999.51
2016-04-23T07:25:07.581Z,999.46
2016-04-23T07:26:07.614Z,999.44
2016-04-23T07:27:07.633Z,999.46
2016-04-23T07:28:07.651Z,999.45
2016-04-23T07:29:07.669Z,999.45
2016-04-23T07:30:07.688Z,999.51
2016-04-23T07:31:07.706Z,999.44
2016-04-23T07:32:07.724Z,999.52
2016-04-23T07:33:07.758Z,999.49
2016-04-23T07:34:07.777Z,999.47
2016-04-23T07:35:07.795Z,999.46
2016-04-23T07:36:07.813Z,999.47
2016-04-23T07:37:07.832Z,999.48
2016-04-23T07:38:07.850Z,999.46
2016-04-23T07:39:07.868Z,999.46
2016-04-23T07:40:07.887Z,999.44
2016-04-23T07:41:07.920Z,999.43
2016-04-23T07:42:07.971Z,999.37
2016-04-23T07:43:08.033Z,999.35
2016-04-23T07:44:08.096Z,999.35
2016-04-23T07:45:08.158Z,999.37
2016-04-23T07:46:08.220Z,999.31
2016-04-23T07:47:08.276Z,999.33
2016-04-23T07:48:08.311Z,999.31
2016-04-23T07:49:08.346Z,999.34
2016-04-23T07:50:08.380Z,999.31
2016-04-23T07:51:08.415Z,999.31
2016-04-23T07:52:08.441Z,999.27
2016-04-23T07:53:08.465Z,999.3
2016-04-23T07:54:08.505Z,999.27
2016-04-23T07:55:08.529Z,999.28
2016-04-23T07:56:08.943Z,999.31
2016-04-23T07:57:08.574Z,999.32
2016-04-23T07:58:08.595Z,999.32
2016-04-23T07:59:08.615Z,999.29
2016-04-23T08:00:08.651Z,999.28
2016-04-23T08:01:08.671Z,999.29
2016-04-23T08:02:08.690Z,999.25
2016-04-23T08:03:08.709Z,999.28
2016-04-23T08:04:08.729Z,999.31
2016-04-23T08:05:08.748Z,999.33
2016-04-23T08:06:08.767Z,999.31
2016-04-23T08:07:08.801Z,999.32
2016-04-23T08:08:08.820Z,999.3
2016-04-23T08:09:08.839Z,999.24
2016-04-23T08:10:08.857Z,999.27
2016-04-23T08:11:08.876Z,999.28
2016-04-23T08:12:08.894Z,999.24
2016-04-23T08:13:08.928Z,999.28
2016-04-23T08:14:08.947Z,999.27
2016-04-23T08:15:08.965Z,999.22
2016-04-23T08:16:08.983Z,999.27
2016-04-23T08:17:09.002Z,999.27
2016-04-23T08:18:09.035Z,999.26
2016-04-23T08:19:09.054Z,999.26
2016-04-23T08:20:09.072Z,999.26
2016-04-23T08:21:10.152Z,999.23
2016-04-23T08:22:09.108Z,999.23
2016-04-23T08:23:09.127Z,999.21
2016-04-23T08:24:09.161Z,999.22
2016-04-23T08:25:09.179Z,999.26
2016-04-23T08:26:11.042Z,999.25
2016-04-23T08:27:09.216Z,999.22
2016-04-23T08:28:09.235Z,999.23
2016-04-23T08:29:09.268Z,999.24
2016-04-23T08:30:09.291Z,999.24
2016-04-23T08:31:09.309Z,999.23
2016-04-23T08:32:09.329Z,999.29
2016-04-23T08:33:09.346Z,999.21
2016-04-23T08:34:09.365Z,999.21
2016-04-23T08:35:09.398Z,999.2
2016-04-23T08:36:09.417Z,999.22
2016-04-23T08:37:09.435Z,999.27
2016-04-23T08:38:09.469Z,999.25
2016-04-23T08:39:09.473Z,999.18
2016-04-23T08:40:09.490Z,999.2
2016-04-23T08:41:09.524Z,999.16
2016-04-23T08:42:09.543Z,999.15
2016-04-23T08:43:09.561Z,999.19
2016-04-23T08:44:09.578Z,999.17
2016-04-23T08:45:09.598Z,999.17
2016-04-23T08:46:09.647Z,999.16
2016-04-23T08:47:09.649Z,999.14
2016-04-23T08:48:09.683Z,999.16
2016-04-23T08:49:09.703Z,999.17
2016-04-23T08:50:09.720Z,999.17
2016-04-23T08:51:09.738Z,999.13
2016-04-23T08:52:09.758Z,999.14
2016-04-23T08:53:09.775Z,999.19
2016-04-23T08:54:09.793Z,999.12
2016-04-23T08:55:09.827Z,999.11
2016-04-23T08:56:09.846Z,999.13
2016-04-23T08:57:09.864Z,999.08
2016-04-23T08:58:09.899Z,999.07
2016-04-23T08:59:09.963Z,999.1
2016-04-23T09:00:09.935Z,999.04
2016-04-23T09:01:09.953Z,999.11
2016-04-23T09:02:09.971Z,999.11
2016-04-23T09:03:09.990Z,999.06
2016-04-23T09:04:10.023Z,999.09
2016-04-23T09:05:10.057Z,999.04
2016-04-23T09:06:10.060Z,999.04
2016-04-23T09:07:10.079Z,999.01
2016-04-23T09:08:10.097Z,998.98
2016-04-23T09:09:10.131Z,998.98
2016-04-23T09:10:10.148Z,998.93
2016-04-23T09:11:10.167Z,998.92
2016-04-23T09:12:10.186Z,998.97
2016-04-23T09:13:10.220Z,998.98
2016-04-23T09:14:10.238Z,998.97
2016-04-23T09:15:10.256Z,998.99
2016-04-23T09:16:11.556Z,998.98
2016-04-23T09:17:10.308Z,999.01
2016-04-23T09:18:10.327Z,998.96
2016-04-23T09:19:10.345Z,998.97
2016-04-23T09:20:10.364Z,999
2016-04-23T09:21:10.397Z,998.99
2016-04-23T09:22:10.416Z,998.97
2016-04-23T09:23:10.433Z,998.95
2016-04-23T09:24:10.452Z,999.02
2016-04-23T09:25:10.471Z,999.01
2016-04-23T09:26:10.505Z,998.96
2016-04-23T09:27:10.524Z,999.03
2016-04-23T09:28:10.541Z,999
2016-04-23T09:29:10.606Z,999.02
2016-04-23T09:30:10.594Z,998.99
2016-04-23T09:31:10.612Z,998.98
2016-04-23T09:32:10.927Z,999.01
2016-04-23T09:33:10.665Z,998.93
2016-04-23T09:34:10.682Z,998.94
2016-04-23T09:35:10.701Z,998.94
2016-04-23T09:36:10.719Z,998.94
2016-04-23T09:37:10.753Z,998.91
2016-04-23T09:38:10.771Z,998.89
2016-04-23T09:39:10.789Z,998.85
2016-04-23T09:40:10.808Z,998.87
2016-04-23T09:41:10.842Z,998.94
2016-04-23T09:42:10.860Z,998.9
2016-04-23T09:43:10.878Z,998.9
2016-04-23T09:44:10.897Z,998.86
2016-04-23T09:45:11.118Z,998.87
2016-04-23T09:46:10.949Z,998.9
2016-04-23T09:47:10.967Z,998.91
2016-04-23T09:48:10.986Z,998.92
2016-04-23T09:49:11.020Z,998.88
2016-04-23T09:50:11.039Z,998.87
2016-04-23T09:51:11.056Z,998.86
2016-04-23T09:52:11.091Z,998.84
2016-04-23T09:53:11.108Z,998.85
2016-04-23T09:54:11.127Z,998.84
2016-04-23T09:55:11.145Z,998.83
2016-04-23T09:56:11.179Z,998.86
2016-04-23T09:57:11.682Z,998.83
2016-04-23T09:58:11.216Z,998.82
2016-04-23T09:59:11.234Z,998.81
2016-04-23T10:00:11.268Z,998.78
2016-04-23T10:01:11.286Z,998.81
2016-04-23T10:02:11.305Z,998.78
2016-04-23T10:03:11.339Z,998.81
2016-04-23T10:04:11.357Z,998.8
2016-04-23T10:05:11.375Z,998.75
2016-04-23T10:06:11.409Z,998.74
2016-04-23T10:07:11.427Z,998.74
2016-04-23T10:08:11.446Z,998.75
2016-04-23T10:09:11.464Z,998.75
2016-04-23T10:10:11.498Z,998.71
2016-04-23T10:11:11.517Z,998.68
2016-04-23T10:12:11.534Z,998.73
2016-04-23T10:13:11.568Z,998.71
2016-04-23T10:14:11.587Z,998.72
2016-04-23T10:15:11.605Z,998.75
2016-04-23T10:16:11.639Z,998.67
2016-04-23T10:17:12.329Z,998.73
2016-04-23T10:18:11.675Z,998.69
2016-04-23T10:19:11.694Z,998.73
2016-04-23T10:20:11.728Z,998.69
2016-04-23T10:21:11.747Z,998.7
2016-04-23T10:22:11.764Z,998.63
2016-04-23T10:23:11.798Z,998.64
2016-04-23T10:24:11.820Z,998.59
2016-04-23T10:25:11.839Z,998.6
2016-04-23T10:26:11.872Z,998.61
2016-04-23T10:27:11.891Z,998.6
2016-04-23T10:28:11.908Z,998.62
2016-04-23T10:29:11.927Z,998.59
2016-04-23T10:30:11.961Z,998.57
2016-04-23T10:31:11.979Z,998.59
2016-04-23T10:32:11.997Z,998.58
2016-04-23T10:33:12.032Z,998.61
2016-04-23T10:34:12.050Z,998.63
2016-04-23T10:35:12.068Z,998.62
2016-04-23T10:36:12.087Z,998.63
2016-04-23T10:37:12.120Z,998.59
2016-04-23T10:38:12.138Z,998.58
2016-04-23T10:39:12.157Z,998.61
2016-04-23T10:40:12.190Z,998.6
2016-04-23T10:41:12.209Z,998.53
2016-04-23T10:42:12.228Z,998.53
2016-04-23T10:43:12.262Z,998.5
2016-04-23T10:44:12.279Z,998.52
2016-04-23T10:45:12.298Z,998.5
2016-04-23T10:46:12.332Z,998.52
2016-04-23T10:47:12.351Z,998.53
2016-04-23T10:48:12.369Z,998.52
2016-04-23T10:49:12.403Z,998.53
2016-04-23T10:50:13.031Z,998.5
2016-04-23T10:51:12.440Z,998.49
2016-04-23T10:52:12.473Z,998.48
2016-04-23T10:53:12.492Z,998.51
2016-04-23T10:54:12.510Z,998.49
2016-04-23T10:55:12.545Z,998.45
2016-04-23T10:56:12.562Z,998.47
2016-04-23T10:57:12.580Z,998.48
2016-04-23T10:58:12.614Z,998.44
2016-04-23T10:59:12.633Z,998.41
2016-04-23T11:00:12.667Z,998.45
2016-04-23T11:01:12.685Z,998.41
2016-04-23T11:02:12.719Z,998.42
2016-04-23T11:03:12.737Z,998.43
2016-04-23T11:04:12.755Z,998.41
2016-04-23T11:05:12.774Z,998.4
2016-04-23T11:06:12.793Z,998.42
2016-04-23T11:07:12.827Z,998.39
2016-04-23T11:08:12.844Z,998.37
2016-04-23T11:09:12.863Z,998.32
2016-04-23T11:10:12.896Z,998.31
2016-04-23T11:11:12.915Z,998.34
2016-04-23T11:12:12.934Z,998.29
2016-04-23T11:13:12.968Z,998.33
2016-04-23T11:14:12.986Z,998.35
2016-04-23T11:15:13.003Z,998.34
2016-04-23T11:16:13.037Z,998.37
2016-04-23T11:17:13.056Z,998.34
2016-04-23T11:18:13.075Z,998.34
2016-04-23T11:19:13.109Z,998.36
2016-04-23T11:20:14.049Z,998.32
2016-04-23T11:21:13.145Z,998.32
2016-04-23T11:22:13.179Z,998.27
2016-04-23T11:23:13.197Z,998.29
2016-04-23T11:24:13.231Z,998.33
2016-04-23T11:25:13.250Z,998.32
2016-04-23T11:26:13.267Z,998.29
2016-04-23T11:27:13.302Z,998.34
2016-04-23T11:28:13.320Z,998.27
2016-04-23T11:29:13.339Z,998.28
2016-04-23T11:30:13.372Z,998.29
2016-04-23T11:31:13.391Z,998.2
2016-04-23T11:32:13.425Z,998.19
2016-04-23T11:33:13.443Z,998.22
2016-04-23T11:34:13.461Z,998.2
2016-04-23T11:35:13.496Z,998.19
2016-04-23T11:36:13.514Z,998.22
2016-04-23T11:37:13.532Z,998.17
2016-04-23T11:38:13.566Z,998.25
2016-04-23T11:39:13.585Z,998.22
2016-04-23T11:40:13.602Z,998.21
2016-04-23T11:41:13.637Z,998.2
2016-04-23T11:42:13.654Z,998.16
2016-04-23T11:43:13.673Z,998.16
2016-04-23T11:44:13.707Z,998.12
2016-04-23T11:45:13.726Z,998.11
2016-04-23T11:46:13.760Z,998.14
2016-04-23T11:47:13.778Z,998.14
2016-04-23T11:48:13.795Z,998.12
2016-04-23T11:49:13.830Z,998.11
2016-04-23T11:50:13.848Z,998.08
2016-04-23T11:51:13.867Z,998.09
2016-04-23T11:52:13.901Z,998.04
2016-04-23T11:53:13.920Z,998.03
2016-04-23T11:54:13.953Z,998.07
2016-04-23T11:55:13.970Z,998.05
2016-04-23T11:56:13.989Z,998.05
2016-04-23T11:57:14.023Z,998.05
2016-04-23T11:58:14.042Z,998.04
2016-04-23T11:59:14.060Z,998.05
2016-04-23T12:00:14.094Z,998
2016-04-23T12:01:14.112Z,998
2016-04-23T12:02:14.131Z,997.98
2016-04-23T12:03:14.164Z,997.94
2016-04-23T12:04:14.214Z,997.99
2016-04-23T12:05:14.216Z,997.94
2016-04-23T12:06:14.235Z,997.89
2016-04-23T12:07:14.269Z,997.91
2016-04-23T12:08:14.288Z,997.88
2016-04-23T12:09:14.321Z,997.91
2016-04-23T12:10:14.371Z,997.91
2016-04-23T12:11:14.358Z,997.85
2016-04-23T12:12:14.376Z,997.83
2016-04-23T12:13:14.410Z,997.87
2016-04-23T12:14:14.428Z,997.8
2016-04-23T12:15:14.462Z,997.85
2016-04-23T12:16:14.481Z,997.8
2016-04-23T12:17:14.515Z,997.82
2016-04-23T12:18:14.532Z,997.86
2016-04-23T12:19:14.551Z,997.84
2016-04-23T12:20:14.600Z,997.81
2016-04-23T12:21:14.604Z,997.76
2016-04-23T12:22:14.653Z,997.8
2016-04-23T12:23:14.656Z,997.76
2016-04-23T12:24:14.689Z,997.78
2016-04-23T12:25:14.723Z,997.73
2016-04-23T12:26:14.726Z,997.76
2016-04-23T12:27:14.761Z,997.75